createdAt,value
2018-10-01T00:00:01.001Z,82.3
2018-10-01T00:01:00.988Z,81.77
2018-10-01T00:02:01.239Z,80.62
2018-10-01T00:03:01.223Z,80.77
2018-10-01T00:04:01.204Z,81.58
2018-10-01T00:05:01.189Z,81.29
2018-10-01T00:06:01.173Z,79.77
2018-10-01T00:07:01.168Z,80.91
2018-10-01T00:08:00.879Z,80.62
2018-10-01T00:09:01.127Z,79.28
2018-10-01T00:10:01.118Z,80.15
2018-10-01T00:11:00.837Z,79.86
2018-10-01T00:12:01.086Z,79.67
2018-10-01T00:13:01.072Z,79.77
2018-10-01T00:14:00.791Z,80.05
2018-10-01T00:15:01.048Z,80.15
2018-10-01T00:16:01.029Z,81.01
2018-10-01T00:17:01.010Z,80.68
2018-10-01T00:18:00.733Z,81.38
2018-10-01T00:19:00.983Z,81.67
2018-10-01T00:20:00.701Z,81.77
2018-10-01T00:21:00.684Z,81.77
2018-10-01T00:22:00.671Z,80.24
2018-10-01T00:23:00.926Z,81.01
2018-10-01T00:24:00.912Z,79.86
2018-10-01T00:25:00.889Z,79.28
2018-10-01T00:26:00.612Z,78.33
2018-10-01T00:27:00.601Z,78.43
2018-10-01T00:28:00.855Z,78.72
2018-10-01T00:29:00.902Z,78.81
2018-10-01T00:30:00.817Z,78.62
2018-10-01T00:31:00.807Z,78.52
2018-10-01T00:32:00.787Z,77.47
2018-10-01T00:33:00.776Z,77.57
2018-10-01T00:34:00.492Z,77.67
2018-10-01T00:35:00.477Z,76.71
2018-10-01T00:36:00.465Z,76.2
2018-10-01T00:37:00.447Z,75.57
2018-10-01T00:38:00.435Z,74.86
2018-10-01T00:39:00.681Z,73.56
2018-10-01T00:40:00.410Z,71.91
2018-10-01T00:41:00.651Z,70.47
2018-10-01T00:42:00.373Z,71.04
2018-10-01T00:43:00.625Z,69.62
2018-10-01T00:44:00.344Z,69.33
2018-10-01T00:45:00.599Z,69.9
2018-10-01T00:46:00.574Z,68.85
2018-10-01T00:47:00.560Z,66.28
2018-10-01T00:48:00.547Z,67.42
2018-10-01T00:49:00.266Z,67.52
2018-10-01T00:50:00.515Z,67.9
2018-10-01T00:51:00.504Z,67.14
2018-10-01T00:52:00.223Z,65.8
2018-10-01T00:53:00.208Z,66.47
2018-10-01T00:54:00.456Z,65.23
2018-10-01T00:55:00.177Z,65.99
2018-10-01T00:56:00.165Z,65.42
2018-10-01T00:57:00.147Z,64.85
2018-10-01T00:58:00.407Z,64.75
2018-10-01T00:59:00.379Z,64.47
2018-10-01T01:00:00.116Z,63.51
2018-10-01T01:01:00.092Z,64.09
2018-10-01T01:02:00.078Z,63.23
2018-10-01T01:03:00.523Z,63.99
2018-10-01T01:04:00.047Z,63.6
2018-10-01T01:05:00.294Z,64.28
2018-10-01T01:06:00.015Z,64.18
2018-10-01T01:07:00.004Z,63.13
2018-10-01T01:07:59.984Z,63.8
2018-10-01T01:08:59.967Z,64.37
2018-10-01T01:10:00.215Z,63.89
2018-10-01T01:10:59.937Z,64.47
2018-10-01T01:12:00.186Z,64.09
2018-10-01T01:13:00.170Z,64.18
2018-10-01T01:14:00.162Z,63.7
2018-10-01T01:14:59.883Z,62.65
2018-10-01T01:15:59.864Z,63.04
2018-10-01T01:17:00.145Z,63.04
2018-10-01T01:17:59.835Z,63.6
2018-10-01T01:19:00.091Z,63.32
2018-10-01T01:20:00.068Z,63.89
2018-10-01T01:21:00.062Z,63.51
2018-10-01T01:22:00.040Z,63.8
2018-10-01T01:23:00.019Z,62.65
2018-10-01T01:24:00.010Z,62.18
2018-10-01T01:24:59.998Z,62.65
2018-10-01T01:25:59.713Z,62.65
2018-10-01T01:26:59.964Z,61.7
2018-10-01T01:27:59.684Z,62.56
2018-10-01T01:28:59.930Z,61.6
2018-10-01T01:29:59.662Z,59.7
2018-10-01T01:30:59.907Z,59.51
2018-10-01T01:31:59.888Z,59.22
2018-10-01T01:32:59.610Z,59.12
2018-10-01T01:33:59.855Z,59.41
2018-10-01T01:34:59.843Z,57.79
2018-10-01T01:35:59.830Z,57.89
2018-10-01T01:36:59.544Z,58.55
2018-10-01T01:37:59.799Z,58.84
2018-10-01T01:38:59.780Z,58.94
2018-10-01T01:39:59.501Z,58.65
2018-10-01T01:40:59.752Z,58.36
2018-10-01T01:41:59.472Z,58.26
2018-10-01T01:42:59.457Z,56.65
2018-10-01T01:43:59.708Z,55.88
2018-10-01T01:44:59.693Z,56.17
2018-10-01T01:45:59.675Z,55.41
2018-10-01T01:46:59.660Z,55.69
2018-10-01T01:47:59.381Z,55.6
2018-10-01T01:48:59.632Z,54.74
2018-10-01T01:49:59.350Z,54.83
2018-10-01T01:50:59.602Z,54.83
2018-10-01T01:51:59.317Z,53.97
2018-10-01T01:52:59.305Z,53.78
2018-10-01T01:53:59.562Z,53.97
2018-10-01T01:54:59.536Z,53.31
2018-10-01T01:55:59.528Z,53.02
2018-10-01T01:56:59.505Z,53.97
2018-10-01T01:57:59.495Z,53.88
2018-10-01T01:58:59.486Z,52.83
2018-10-01T01:59:59.540Z,53.31
2018-10-01T02:00:59.495Z,52.92
2018-10-01T02:01:59.170Z,53.12
2018-10-01T02:02:59.418Z,54.36
2018-10-01T02:03:59.424Z,53.21
2018-10-01T02:04:59.392Z,53.59
2018-10-01T02:05:59.374Z,54.26
2018-10-01T02:06:59.099Z,53.41
2018-10-01T02:07:59.338Z,53.02
2018-10-01T02:08:59.070Z,53.31
2018-10-01T02:09:59.310Z,52.71
2018-10-01T02:10:59.301Z,52.04
2018-10-01T02:11:59.284Z,52.23
2018-10-01T02:12:58.998Z,52.23
2018-10-01T02:13:58.984Z,51.56
2018-10-01T02:14:58.970Z,52.42
2018-10-01T02:15:59.217Z,51.47
2018-10-01T02:16:58.938Z,52.04
2018-10-01T02:17:58.926Z,51.76
2018-10-01T02:18:59.173Z,51.66
2018-10-01T02:19:59.155Z,51.09
2018-10-01T02:20:59.189Z,51.56
2018-10-01T02:21:59.130Z,49.95
2018-10-01T02:22:59.114Z,50.9
2018-10-01T02:23:58.831Z,50.8
2018-10-01T02:24:59.080Z,50.32
2018-10-01T02:25:59.065Z,50.23
2018-10-01T02:26:58.785Z,49.56
2018-10-01T02:27:59.037Z,49.76
2018-10-01T02:28:58.755Z,50.13
2018-10-01T02:29:59.003Z,49.66
2018-10-01T02:30:58.994Z,49.56
2018-10-01T02:31:58.710Z,49.85
2018-10-01T02:32:58.958Z,49.28
2018-10-01T02:33:58.946Z,49.85
2018-10-01T02:34:58.926Z,49.76
2018-10-01T02:35:58.647Z,49.95
2018-10-01T02:36:58.634Z,49.56
2018-10-01T02:37:58.889Z,48.99
2018-10-01T02:38:58.869Z,49.76
2018-10-01T02:39:58.853Z,48.32
2018-10-01T02:40:58.838Z,47.28
2018-10-01T02:41:58.819Z,48.32
2018-10-01T02:42:58.805Z,47.94
2018-10-01T02:43:58.526Z,48.23
2018-10-01T02:44:58.773Z,47.94
2018-10-01T02:45:58.785Z,47.94
2018-10-01T02:46:58.742Z,47.37
2018-10-01T02:47:58.461Z,48.23
2018-10-01T02:48:58.714Z,47.08
2018-10-01T02:49:58.429Z,47.82
2018-10-01T02:50:58.685Z,48.02
2018-10-01T02:51:58.659Z,48.21
2018-10-01T02:52:58.652Z,47.82
2018-10-01T02:53:58.640Z,46.97
2018-10-01T02:54:58.356Z,46.49
2018-10-01T02:55:58.599Z,46.78
2018-10-01T02:56:58.602Z,46.97
2018-10-01T02:57:58.578Z,47.25
2018-10-01T02:58:58.291Z,47.73
2018-10-01T02:59:58.272Z,48.39
2018-10-01T03:00:58.525Z,48.49
2018-10-01T03:01:58.246Z,47.92
2018-10-01T03:02:58.428Z,47.92
2018-10-01T03:03:58.475Z,48.3
2018-10-01T03:04:58.197Z,48.21
2018-10-01T03:05:58.177Z,48.49
2018-10-01T03:06:58.445Z,48.49
2018-10-01T03:07:58.148Z,47.73
2018-10-01T03:08:58.128Z,46.87
2018-10-01T03:09:58.380Z,45.73
2018-10-01T03:10:58.099Z,44.87
2018-10-01T03:11:58.090Z,44.78
2018-10-01T03:12:58.070Z,44.2
2018-10-01T03:13:58.313Z,44.49
2018-10-01T03:14:58.035Z,44.75
2018-10-01T03:15:58.283Z,44.96
2018-10-01T03:16:58.008Z,45.42
2018-10-01T03:17:58.249Z,45.89
2018-10-01T03:18:58.254Z,46.37
2018-10-01T03:19:57.959Z,45.51
2018-10-01T03:20:57.940Z,45.42
2018-10-01T03:21:57.925Z,45.42
2018-10-01T03:22:58.174Z,45.61
2018-10-01T03:23:58.154Z,44.56
2018-10-01T03:24:58.140Z,44.75
2018-10-01T03:25:58.117Z,44.85
2018-10-01T03:26:58.114Z,45.51
2018-10-01T03:27:58.104Z,44.85
2018-10-01T03:28:58.079Z,45.14
2018-10-01T03:29:58.064Z,45.32
2018-10-01T03:30:58.044Z,43.9
2018-10-01T03:31:58.042Z,44.56
2018-10-01T03:32:58.008Z,44.94
2018-10-01T03:33:57.995Z,45.14
2018-10-01T03:34:57.714Z,44.27
2018-10-01T03:35:57.961Z,44.56
2018-10-01T03:36:57.684Z,44.85
2018-10-01T03:37:57.664Z,45.68
2018-10-01T03:38:57.919Z,45.23
2018-10-01T03:39:58.017Z,44.82
2018-10-01T03:40:57.885Z,44.35
2018-10-01T03:41:57.869Z,43.8
2018-10-01T03:42:57.590Z,43.8
2018-10-01T03:43:57.568Z,43.78
2018-10-01T03:44:57.824Z,43.4
2018-10-01T03:45:57.543Z,43.68
2018-10-01T03:46:57.780Z,43.87
2018-10-01T03:47:57.766Z,43.87
2018-10-01T03:48:57.752Z,42.83
2018-10-01T03:49:57.745Z,41.97
2018-10-01T03:50:57.471Z,42.16
2018-10-01T03:51:57.701Z,42.25
2018-10-01T03:52:57.428Z,41.69
2018-10-01T03:53:57.667Z,41.4
2018-10-01T03:54:57.392Z,40.73
2018-10-01T03:55:57.632Z,40.35
2018-10-01T03:56:57.619Z,41.21
2018-10-01T03:57:57.604Z,41.11
2018-10-01T03:58:57.322Z,41.97
2018-10-01T03:59:57.307Z,41.69
2018-10-01T04:00:57.291Z,41.69
2018-10-01T04:01:57.540Z,40.83
2018-10-01T04:02:57.282Z,39.87
2018-10-01T04:03:57.503Z,39.97
2018-10-01T04:04:57.489Z,38.73
2018-10-01T04:05:57.206Z,38.73
2018-10-01T04:06:57.190Z,37.78
2018-10-01T04:07:57.177Z,36.26
2018-10-01T04:08:57.698Z,36.55
2018-10-01T04:09:57.410Z,36.55
2018-10-01T04:10:57.390Z,35.97
2018-10-01T04:11:57.111Z,35.21
2018-10-01T04:12:57.356Z,35.5
2018-10-01T04:13:57.073Z,35.4
2018-10-01T04:14:57.326Z,35.02
2018-10-01T04:15:57.318Z,35.78
2018-10-01T04:16:57.289Z,35.02
2018-10-01T04:17:57.272Z,34.64
2018-10-01T04:18:57.258Z,34.74
2018-10-01T04:19:56.975Z,34.55
2018-10-01T04:20:56.962Z,34.55
2018-10-01T04:21:56.941Z,33.78
2018-10-01T04:22:57.359Z,34.45
2018-10-01T04:23:57.173Z,33.78
2018-10-01T04:24:57.157Z,33.69
2018-10-01T04:25:57.141Z,33.78
2018-10-01T04:26:57.125Z,32.83
2018-10-01T04:27:57.110Z,33.69
2018-10-01T04:28:57.095Z,33.03
2018-10-01T04:29:57.076Z,34.07
2018-10-01T04:30:56.794Z,34.36
2018-10-01T04:31:56.774Z,34.45
2018-10-01T04:32:57.027Z,34.83
2018-10-01T04:33:57.046Z,34.75
2018-10-01T04:34:56.993Z,35.02
2018-10-01T04:35:56.982Z,34.74
2018-10-01T04:36:56.704Z,34.18
2018-10-01T04:37:56.678Z,34.64
2018-10-01T04:38:56.931Z,34.55
2018-10-01T04:39:56.909Z,34.94
2018-10-01T04:40:56.892Z,35.52
2018-10-01T04:41:56.887Z,35.52
2018-10-01T04:42:56.868Z,36.37
2018-10-01T04:43:56.845Z,35.99
2018-10-01T04:44:56.829Z,36.47
2018-10-01T04:45:56.547Z,36.08
2018-10-01T04:46:56.931Z,36.47
2018-10-01T04:47:56.515Z,36.16
2018-10-01T04:48:56.501Z,36.07
2018-10-01T04:49:56.744Z,35.97
2018-10-01T04:50:56.729Z,36.57
2018-10-01T04:51:56.716Z,36.18
2018-10-01T04:52:56.432Z,36.35
2018-10-01T04:53:56.417Z,36.18
2018-10-01T04:54:56.400Z,36.28
2018-10-01T04:55:56.649Z,36.55
2018-10-01T04:56:56.370Z,37.13
2018-10-01T04:57:56.646Z,36.76
2018-10-01T04:58:56.599Z,36.74
2018-10-01T04:59:56.321Z,36.47
2018-10-01T05:00:56.566Z,36.76
2018-10-01T05:01:56.284Z,36.85
2018-10-01T05:02:56.470Z,37.23
2018-10-01T05:03:56.253Z,36.76
2018-10-01T05:04:56.501Z,36.18
2018-10-01T05:05:56.490Z,36.66
2018-10-01T05:06:56.205Z,36.55
2018-10-01T05:07:56.189Z,36.94
2018-10-01T05:08:56.435Z,36.55
2018-10-01T05:09:56.158Z,35.33
2018-10-01T05:10:56.399Z,35.33
2018-10-01T05:11:56.123Z,35.89
2018-10-01T05:12:56.372Z,35.4
2018-10-01T05:13:56.353Z,35.12
2018-10-01T05:14:56.232Z,35.61
2018-10-01T05:15:56.056Z,36.08
2018-10-01T05:16:56.303Z,36.18
2018-10-01T05:17:56.287Z,37.13
2018-10-01T05:18:56.006Z,37.13
2018-10-01T05:19:55.987Z,37.13
2018-10-01T05:20:55.973Z,37.42
2018-10-01T05:21:55.957Z,37.71
2018-10-01T05:22:55.937Z,37.42
2018-10-01T05:23:56.185Z,37.32
2018-10-01T05:24:55.909Z,37.9
2018-10-01T05:25:56.159Z,38.18
2018-10-01T05:26:56.202Z,38.37
2018-10-01T05:27:56.122Z,38.47
2018-10-01T05:28:55.842Z,39.04
2018-10-01T05:29:55.825Z,38.95
2018-10-01T05:30:56.071Z,39.23
2018-10-01T05:31:55.789Z,39.5
2018-10-01T05:32:56.042Z,40.06
2018-10-01T05:33:56.022Z,40.06
2018-10-01T05:34:55.740Z,39.9
2018-10-01T05:35:55.726Z,40.35
2018-10-01T05:36:55.710Z,40.56
2018-10-01T05:37:56.211Z,40.28
2018-10-01T05:38:55.943Z,39.87
2018-10-01T05:39:55.660Z,39.69
2018-10-01T05:40:55.905Z,39.42
2018-10-01T05:41:55.627Z,38.73
2018-10-01T05:42:55.874Z,38.35
2018-10-01T05:43:55.598Z,38.07
2018-10-01T05:44:55.845Z,38.45
2018-10-01T05:45:55.561Z,38.07
2018-10-01T05:46:55.830Z,38.35
2018-10-01T05:47:55.791Z,38.45
2018-10-01T05:48:55.775Z,38.73
2018-10-01T05:49:55.495Z,39.02
2018-10-01T05:50:55.482Z,39.12
2018-10-01T05:51:55.727Z,39.59
2018-10-01T05:52:55.447Z,39.02
2018-10-01T05:53:55.691Z,39.21
2018-10-01T05:54:55.679Z,39.02
2018-10-01T05:55:55.394Z,39.02
2018-10-01T05:56:55.650Z,39.31
2018-10-01T05:57:55.373Z,39.02
2018-10-01T05:58:55.347Z,38.73
2018-10-01T05:59:55.589Z,39.21
2018-10-01T06:00:55.310Z,38.64
2018-10-01T06:01:55.300Z,38.54
2018-10-01T06:02:55.542Z,38.64
2018-10-01T06:03:55.528Z,38.45
2018-10-01T06:04:55.756Z,38.45
2018-10-01T06:05:55.236Z,38.17
2018-10-01T06:06:55.479Z,38.07
2018-10-01T06:07:55.464Z,38.35
2018-10-01T06:08:55.175Z,38.54
2018-10-01T06:09:55.162Z,38.64
2018-10-01T06:10:55.146Z,38.54
2018-10-01T06:11:55.150Z,38.73
2018-10-01T06:12:55.124Z,38.83
2018-10-01T06:13:55.362Z,39.12
2018-10-01T06:14:55.347Z,38.83
2018-10-01T06:15:55.325Z,38.35
2018-10-01T06:16:55.309Z,37.97
2018-10-01T06:17:55.030Z,38.26
2018-10-01T06:18:55.278Z,38.07
2018-10-01T06:19:55.260Z,38.35
2018-10-01T06:20:55.248Z,38.64
2018-10-01T06:21:55.227Z,38.73
2018-10-01T06:22:54.946Z,38.73
2018-10-01T06:23:55.196Z,38.92
2018-10-01T06:24:54.913Z,38.64
2018-10-01T06:25:54.911Z,39.12
2018-10-01T06:26:55.144Z,39.21
2018-10-01T06:27:55.134Z,39.4
2018-10-01T06:28:55.113Z,39.78
2018-10-01T06:29:55.127Z,39.69
2018-10-01T06:30:54.814Z,39.87
2018-10-01T06:31:55.063Z,39.69
2018-10-01T06:32:54.777Z,39.78
2018-10-01T06:33:55.024Z,39.78
2018-10-01T06:34:55.057Z,40.35
2018-10-01T06:35:54.728Z,41.21
2018-10-01T06:36:54.711Z,40.35
2018-10-01T06:37:54.980Z,41.21
2018-10-01T06:38:54.684Z,40.45
2018-10-01T06:39:54.927Z,40.64
2018-10-01T06:40:54.647Z,40.26
2018-10-01T06:41:55.178Z,41.21
2018-10-01T06:42:54.878Z,40.73
2018-10-01T06:43:54.858Z,40.83
2018-10-01T06:44:54.845Z,40.83
2018-10-01T06:45:54.822Z,40.26
2018-10-01T06:46:54.806Z,40.73
2018-10-01T06:47:54.812Z,41.21
2018-10-01T06:48:54.511Z,40.73
2018-10-01T06:49:54.492Z,40.26
2018-10-01T06:50:54.552Z,41.11
2018-10-01T06:51:54.462Z,41.11
2018-10-01T06:52:54.713Z,40.35
2018-10-01T06:53:54.691Z,40.92
2018-10-01T06:54:54.673Z,41.3
2018-10-01T06:55:54.661Z,41.21
2018-10-01T06:56:54.377Z,41.02
2018-10-01T06:57:54.631Z,40.73
2018-10-01T06:58:54.607Z,41.59
2018-10-01T06:59:54.593Z,41.49
2018-10-01T07:00:54.571Z,42.16
2018-10-01T07:01:54.295Z,43.68
2018-10-01T07:02:54.543Z,44.46
2018-10-01T07:03:54.532Z,44.94
2018-10-01T07:04:54.243Z,44.66
2018-10-01T07:05:55.092Z,44.27
2018-10-01T07:06:54.209Z,44.85
2018-10-01T07:07:54.198Z,45.7
2018-10-01T07:08:54.445Z,46.56
2018-10-01T07:09:54.440Z,48.08
2018-10-01T07:10:54.407Z,48.47
2018-10-01T07:11:54.127Z,48.94
2018-10-01T07:12:54.109Z,48.56
2018-10-01T07:13:54.361Z,49.23
2018-10-01T07:14:54.343Z,49.42
2018-10-01T07:15:54.061Z,51.51
2018-10-01T07:16:54.056Z,52.37
2018-10-01T07:17:54.028Z,52.75
2018-10-01T07:18:54.014Z,52.28
2018-10-01T07:19:53.992Z,53.32
2018-10-01T07:20:54.256Z,53.89
2018-10-01T07:21:54.230Z,53.89
2018-10-01T07:22:54.352Z,54.66
2018-10-01T07:23:54.239Z,54.88
2018-10-01T07:24:53.912Z,54.97
2018-10-01T07:25:53.899Z,55.54
2018-10-01T07:26:54.143Z,57.07
2018-10-01T07:27:54.128Z,57.07
2018-10-01T07:28:53.850Z,58.02
2018-10-01T07:29:54.101Z,61.83
2018-10-01T07:30:54.081Z,60.21
2018-10-01T07:31:53.799Z,59.54
2018-10-01T07:32:54.047Z,60.78
2018-10-01T07:33:54.030Z,60.21
2018-10-01T07:34:54.010Z,59.64
2018-10-01T07:35:53.737Z,60.88
2018-10-01T07:36:53.713Z,64.02
2018-10-01T07:37:53.698Z,63.73
2018-10-01T07:38:53.706Z,63.54
2018-10-01T07:39:53.673Z,62.68
2018-10-01T07:40:53.919Z,63
2018-10-01T07:41:53.897Z,62.34
2018-10-01T07:42:53.620Z,64.81
2018-10-01T07:43:53.870Z,64.62
2018-10-01T07:44:54.016Z,65.2
2018-10-01T07:45:53.847Z,64.91
2018-10-01T07:46:53.557Z,63.76
2018-10-01T07:47:53.588Z,62.72
2018-10-01T07:48:53.839Z,62.72
2018-10-01T07:49:53.770Z,63.1
2018-10-01T07:50:53.979Z,63.86
2018-10-01T07:51:53.480Z,65.77
2018-10-01T07:52:53.723Z,67
2018-10-01T07:53:53.759Z,67.1
2018-10-01T07:54:53.707Z,66.91
2018-10-01T07:55:53.416Z,66.34
2018-10-01T07:56:53.393Z,67.39
2018-10-01T07:57:53.646Z,68.63
2018-10-01T07:58:53.362Z,67.29
2018-10-01T07:59:53.592Z,69.87
2018-10-01T08:00:53.597Z,70.34
2018-10-01T08:01:53.313Z,69.58
2018-10-01T08:02:53.565Z,68.53
2018-10-01T08:03:53.546Z,68.53
2018-10-01T08:04:53.269Z,69.29
2018-10-01T08:05:53.248Z,68.82
2018-10-01T08:06:53.499Z,70.34
2018-10-01T08:07:53.220Z,71.81
2018-10-01T08:08:53.204Z,72.38
2018-10-01T08:09:53.453Z,73.62
2018-10-01T08:10:53.434Z,75.34
2018-10-01T08:11:53.154Z,77.82
2018-10-01T08:12:53.402Z,76.1
2018-10-01T08:13:53.123Z,78.2
2018-10-01T08:14:53.374Z,80.01
2018-10-01T08:15:53.555Z,78.39
2018-10-01T08:16:53.350Z,81.92
2018-10-01T08:17:53.066Z,81.92
2018-10-01T08:18:53.315Z,79.44
2018-10-01T08:19:53.295Z,78.67
2018-10-01T08:20:53.016Z,77.91
2018-10-01T08:21:53.002Z,77.62
2018-10-01T08:22:52.981Z,80.2
2018-10-01T08:23:53.231Z,79.86
2018-10-01T08:24:52.951Z,80.24
2018-10-01T08:25:53.202Z,79.77
2018-10-01T08:26:53.184Z,78.23
2018-10-01T08:27:52.906Z,83.96
2018-10-01T08:28:53.157Z,82.82
2018-10-01T08:29:53.595Z,84.82
2018-10-01T08:30:53.125Z,85.58
2018-10-01T08:31:52.847Z,85.97
2018-10-01T08:32:52.828Z,86.25
2018-10-01T08:33:52.814Z,86.35
2018-10-01T08:34:53.058Z,84.82
2018-10-01T08:35:52.783Z,85.39
2018-10-01T08:36:53.035Z,86.06
2018-10-01T08:37:53.089Z,87.4
2018-10-01T08:38:52.805Z,85.58
2018-10-01T08:39:52.725Z,87.21
2018-10-01T08:40:52.968Z,86.16
2018-10-01T08:41:52.689Z,85.49
2018-10-01T08:42:52.681Z,86.82
2018-10-01T08:43:52.932Z,86.06
2018-10-01T08:44:52.911Z,86.35
2018-10-01T08:45:52.629Z,86.44
2018-10-01T08:46:52.617Z,85.11
2018-10-01T08:47:52.861Z,88.26
2018-10-01T08:48:52.587Z,87.25
2018-10-01T08:49:52.831Z,93.17
2018-10-01T08:50:52.553Z,91.88
2018-10-01T08:51:52.725Z,97.89
2018-10-01T08:52:52.522Z,98.23
2018-10-01T08:53:52.771Z,98.61
2018-10-01T08:54:52.755Z,98.8
2018-10-01T08:55:52.473Z,99.99
2018-10-01T08:56:52.460Z,99.99
2018-10-01T08:57:52.709Z,99.99
2018-10-01T08:58:52.430Z,99.99
2018-10-01T08:59:52.418Z,99.99
2018-10-01T09:00:52.667Z,99.99
2018-10-01T09:01:52.385Z,99.99
2018-10-01T09:02:52.640Z,99.99
2018-10-01T09:03:52.619Z,99.99
2018-10-01T09:04:52.602Z,99.99
2018-10-01T09:05:52.325Z,99.99
2018-10-01T09:06:52.754Z,99.99
2018-10-01T09:07:52.558Z,99.99
2018-10-01T09:08:52.282Z,99.99
2018-10-01T09:09:52.262Z,99.99
2018-10-01T09:10:52.246Z,99.99
2018-10-01T09:11:52.503Z,99.99
2018-10-01T09:12:52.487Z,99.99
2018-10-01T09:13:52.466Z,99.99
2018-10-01T09:14:52.221Z,99.99
2018-10-01T09:15:52.444Z,99.99
2018-10-01T09:16:52.426Z,99.99
2018-10-01T09:17:52.408Z,99.99
2018-10-01T09:18:52.398Z,99.99
2018-10-01T09:19:52.378Z,99.99
2018-10-01T09:20:52.362Z,99.99
2018-10-01T09:21:52.083Z,99.99
2018-10-01T09:22:52.069Z,99.99
2018-10-01T09:23:52.324Z,99.99
2018-10-01T09:24:52.305Z,99.99
2018-10-01T09:25:52.026Z,99.99
2018-10-01T09:26:52.016Z,99.99
2018-10-01T09:27:51.995Z,99.99
2018-10-01T09:28:52.255Z,99.99
2018-10-01T09:29:52.233Z,99.99
2018-10-01T09:30:52.373Z,99.99
2018-10-01T09:31:52.203Z,99.99
2018-10-01T09:32:52.193Z,99.99
2018-10-01T09:33:52.173Z,99.99
2018-10-01T09:34:52.169Z,99.99
2018-10-01T09:35:51.878Z,99.99
2018-10-01T09:36:52.135Z,99.99
2018-10-01T09:38:23.998Z,99.99
2018-10-01T09:38:52.103Z,99.99
2018-10-01T09:39:52.091Z,99.99
2018-10-01T09:40:52.075Z,99.99
2018-10-01T09:41:52.064Z,99.99
2018-10-01T09:42:51.778Z,99.99
2018-10-01T09:43:51.768Z,99.99
2018-10-01T09:44:51.756Z,99.99
2018-10-01T09:45:52.016Z,99.99
2018-10-01T09:46:51.722Z,99.99
2018-10-01T09:47:52.045Z,99.99
2018-10-01T09:48:51.960Z,99.99
2018-10-01T09:49:51.952Z,99.99
2018-10-01T09:50:51.669Z,99.99
2018-10-01T09:51:51.926Z,99.99
2018-10-01T09:52:51.912Z,99.99
2018-10-01T09:53:52.118Z,99.99
2018-10-01T09:54:51.615Z,99.99
2018-10-01T09:55:51.867Z,99.99
2018-10-01T09:56:51.591Z,99.99
2018-10-01T09:57:51.573Z,99.99
2018-10-01T09:58:51.824Z,99.99
2018-10-01T09:59:51.544Z,99.99
2018-10-01T10:00:51.800Z,99.99
2018-10-01T10:01:51.523Z,99.99
2018-10-01T10:02:51.508Z,99.99
2018-10-01T10:03:51.901Z,99.99
2018-10-01T10:04:52.002Z,99.99
2018-10-01T10:05:51.735Z,99.99
2018-10-01T10:06:51.729Z,99.99
2018-10-01T10:07:51.434Z,99.99
2018-10-01T10:08:51.425Z,99.99
2018-10-01T10:09:51.413Z,99.99
2018-10-01T10:10:51.662Z,99.99
2018-10-01T10:11:51.649Z,99.99
2018-10-01T10:12:51.375Z,99.99
2018-10-01T10:13:51.622Z,99.99
2018-10-01T10:14:51.618Z,99.99
2018-10-01T10:15:51.594Z,99.99
2018-10-01T10:16:51.894Z,99.99
2018-10-01T10:17:51.645Z,99.99
2018-10-01T10:18:51.553Z,99.99
2018-10-01T10:19:51.541Z,99.99
2018-10-01T10:20:51.264Z,99.99
2018-10-01T10:21:51.249Z,99.99
2018-10-01T10:22:51.237Z,99.99
2018-10-01T10:23:51.490Z,99.99
2018-10-01T10:24:51.474Z,99.99
2018-10-01T10:25:51.199Z,99.99
2018-10-01T10:26:51.457Z,99.99
2018-10-01T10:27:51.169Z,99.99
2018-10-01T10:28:51.158Z,99.99
2018-10-01T10:29:51.144Z,99.99
2018-10-01T10:30:51.400Z,99.99
2018-10-01T10:31:51.120Z,99.99
2018-10-01T10:32:51.371Z,99.99
2018-10-01T10:33:51.109Z,99.99
2018-10-01T10:34:51.360Z,99.99
2018-10-01T10:35:51.339Z,99.99
2018-10-01T10:36:51.052Z,99.99
2018-10-01T10:37:51.038Z,99.99
2018-10-01T10:38:51.296Z,99.99
2018-10-01T10:39:51.015Z,99.99
2018-10-01T10:40:51.274Z,99.99
2018-10-01T10:41:51.517Z,99.99
2018-10-01T10:42:51.240Z,99.99
2018-10-01T10:43:51.225Z,99.99
2018-10-01T10:44:51.213Z,99.99
2018-10-01T10:45:51.203Z,99.99
2018-10-01T10:46:51.188Z,99.99
2018-10-01T10:47:51.172Z,99.99
2018-10-01T10:48:50.896Z,99.99
2018-10-01T10:49:51.149Z,99.99
2018-10-01T10:50:50.874Z,99.99
2018-10-01T10:51:50.858Z,99.99
2018-10-01T10:52:50.842Z,99.99
2018-10-01T10:53:50.832Z,89.39
2018-10-01T10:54:50.820Z,85.42
2018-10-01T10:55:51.072Z,85.1
2018-10-01T10:56:50.807Z,79.08
2018-10-01T10:57:51.045Z,77.55
2018-10-01T10:58:51.033Z,78.22
2018-10-01T10:59:51.020Z,80.41
2018-10-01T11:00:51.010Z,79.27
2018-10-01T11:01:50.995Z,74.11
2018-10-01T11:02:50.979Z,70.67
2018-10-01T11:03:50.914Z,72.87
2018-10-01T11:04:50.694Z,76.4
2018-10-01T11:05:50.938Z,80.51
2018-10-01T11:06:50.668Z,76.98
2018-10-01T11:07:50.913Z,76.25
2018-10-01T11:08:50.638Z,79.08
2018-10-01T11:09:50.628Z,82.94
2018-10-01T11:10:50.612Z,83.42
2018-10-01T11:11:50.866Z,85.38
2018-10-01T11:12:50.588Z,80.32
2018-10-01T11:13:50.653Z,81.85
2018-10-01T11:14:50.697Z,81.14
2018-10-01T11:15:50.546Z,86.87
2018-10-01T11:16:50.537Z,86.68
2018-10-01T11:17:50.563Z,84.86
2018-10-01T11:18:50.715Z,85.05
2018-10-01T11:19:50.661Z,82.38
2018-10-01T11:20:50.539Z,79.38
2018-10-01T11:21:50.495Z,77.95
2018-10-01T11:22:50.753Z,75.76
2018-10-01T11:23:50.447Z,75.09
2018-10-01T11:24:50.429Z,75.18
2018-10-01T11:25:50.413Z,73.94
2018-10-01T11:26:50.431Z,77.86
2018-10-01T11:27:50.920Z,73.56
2018-10-01T11:28:50.862Z,74.52
2018-10-01T11:29:50.360Z,70.61
2018-10-01T11:30:50.350Z,70.7
2018-10-01T11:31:51.035Z,71.78
2018-10-01T11:32:50.589Z,73.32
2018-10-01T11:33:50.576Z,72.17
2018-10-01T11:34:50.315Z,77.7
2018-10-01T11:35:50.312Z,77.61
2018-10-01T11:36:50.271Z,75.54
2018-10-01T11:37:50.520Z,79.46
2018-10-01T11:38:50.508Z,80.9
2018-10-01T11:39:50.253Z,84.05
2018-10-01T11:40:50.482Z,82.32
2018-10-01T11:41:50.472Z,81.56
2018-10-01T11:42:50.456Z,79.17
2018-10-01T11:43:50.178Z,86
2018-10-01T11:44:50.433Z,89.06
2018-10-01T11:45:50.338Z,94.98
2018-10-01T11:46:50.406Z,89.34
2018-10-01T11:47:50.395Z,89.15
2018-10-01T11:48:50.119Z,89.53
2018-10-01T11:49:50.107Z,95.27
2018-10-01T11:50:50.095Z,94.26
2018-10-01T11:51:50.088Z,99.99
2018-10-01T11:52:50.342Z,99.99
2018-10-01T11:53:50.063Z,98.33
2018-10-01T11:54:50.050Z,99.99
2018-10-01T11:55:50.315Z,99.99
2018-10-01T11:56:50.300Z,99.99
2018-10-01T11:57:50.582Z,99.99
2018-10-01T11:58:50.015Z,99.99
2018-10-01T11:59:50.278Z,99.99
2018-10-01T12:00:50.259Z,99.99
2018-10-01T12:01:50.252Z,99.99
2018-10-01T12:02:49.980Z,99.99
2018-10-01T12:03:50.015Z,99.99
2018-10-01T12:04:50.218Z,99.57
2018-10-01T12:05:50.208Z,98.37
2018-10-01T12:06:49.934Z,96.75
2018-10-01T12:07:50.190Z,94.46
2018-10-01T12:08:50.180Z,94.17
2018-10-01T12:09:50.056Z,93.41
2018-10-01T12:10:49.893Z,92.16
2018-10-01T12:11:49.880Z,93.02
2018-10-01T12:12:50.133Z,92.26
2018-10-01T12:13:49.860Z,87.68
2018-10-01T12:14:50.111Z,92.07
2018-10-01T12:15:50.603Z,96.22
2018-10-01T12:16:50.089Z,94.51
2018-10-01T12:17:49.807Z,91.26
2018-10-01T12:18:49.814Z,92.31
2018-10-01T12:19:50.053Z,89.69
2018-10-01T12:20:49.767Z,91.41
2018-10-01T12:21:50.160Z,88.16
2018-10-01T12:22:50.009Z,90.45
2018-10-01T12:23:49.729Z,94.65
2018-10-01T12:24:49.719Z,94.03
2018-10-01T12:25:49.707Z,94.07
2018-10-01T12:26:49.959Z,99.99
2018-10-01T12:27:49.681Z,99.99
2018-10-01T12:28:49.941Z,99.99
2018-10-01T12:29:49.939Z,99.99
2018-10-01T12:30:49.910Z,99.99
2018-10-01T12:31:49.944Z,99.99
2018-10-01T12:32:49.890Z,99.99
2018-10-01T12:33:50.093Z,99.99
2018-10-01T12:34:49.654Z,99.99
2018-10-01T12:35:49.855Z,99.99
2018-10-01T12:36:49.848Z,99.99
2018-10-01T12:37:49.572Z,99.99
2018-10-01T12:38:49.826Z,99.99
2018-10-01T12:39:49.703Z,99.99
2018-10-01T12:40:49.543Z,99.99
2018-10-01T12:41:49.532Z,99.99
2018-10-01T12:42:49.945Z,99.99
2018-10-01T12:43:49.775Z,99.99
2018-10-01T12:44:49.497Z,99.99
2018-10-01T12:45:49.803Z,99.99
2018-10-01T12:46:49.745Z,99.99
2018-10-01T12:47:49.734Z,99.99
2018-10-01T12:48:49.723Z,99.99
2018-10-01T12:49:49.710Z,99.99
2018-10-01T12:50:49.444Z,99.99
2018-10-01T12:51:49.542Z,99.99
2018-10-01T12:52:49.433Z,99.99
2018-10-01T12:53:49.677Z,99.99